AirNav   Everest Fuels
 
 339 users online  

C08 Silver West Airport
Westcliffe, Colorado, USA

GOING TO WESTCLIFFE?


FAA INFORMATION EFFECTIVE 07 OCTOBER 2021

Location

FAA Identifier: C08
Lat/Long: 38-00-47.8000N 105-22-27.3800W
38-00.796667N 105-22.456333W
38.0132778,-105.3742722
(estimated)
Elevation: 8290 ft. / 2527 m (estimated)
Variation: 11E (1985)
From city: 9 miles SE of WESTCLIFFE, CO
Time zone: UTC -6 (UTC -7 during Standard Time)
Zip code: 81252

Airport Operations

Airport use: Open to the public
Activation date: 04/1973
Control tower: no
ARTCC: DENVER CENTER
FSS: DENVER FLIGHT SERVICE STATION
NOTAMs facility: DEN (NOTAM-D service available)
Attendance: UNATNDD
Wind indicator: yes
Segmented circle: yes

Airport Communications

CTAF: 122.9

Airport Services

Fuel available: 100LL
100LL:H24 SELF SERVE.
Parking: tiedowns
Airframe service: NONE
Powerplant service: NONE
Bottled oxygen: NONE
Bulk oxygen: NONE

Runway Information

Runway 13/31

Dimensions: 6954 x 55 ft. / 2120 x 17 m
Surface: asphalt, in good condition
-5 TO +12 FT TRRN FULL LENGTH OF RWY IN PRIM SFC.
Operational restrictions: +15 FT HWY 120 FT W, PARL TO RCL FULL LEN, +4 FT FENCE 100 FT W, PARL TO RCL FULL LEN.
RUNWAY 13  RUNWAY 31
Latitude: 38-01.282500N38-00.310833N
Longitude: 105-22.840000W105-22.072667W
Elevation: 8238.0 ft.8274.0 ft.
Traffic pattern: rightleft
Markings: basic, in good conditionbasic, in good condition
Touchdown point: yes, no lightsyes, no lights
Obstructions: none10 ft. gnd, 201 ft. from runway
+12 FT TRRN 120 FT FM THR.

Airport Ownership and Management from official FAA records

Ownership: Publicly-owned
Owner: CUSTER COUNTY, COLORADO
360 CR 310, P.O. BOX 150
WESTCLIFFE, CO 81252
Phone 719-783-2695
Manager: ROBERT JOLEY
P.O. BOX 150
WESTCLIFFE, CO 81252
Phone 719-783-2286

Airport Operational Statistics

Aircraft based on the field: 25
Single engine airplanes: 23
Jet airplanes: 1
Gliders airplanes: 1
    
Aircraft operations: avg 89/week *
58% local general aviation
39% transient general aviation
4% military
* for 12-month period ending 31 December 2017

Additional Remarks

DEER & ELK INVOF RWY.
CTN: USAF STUDENT TRNG INVOF COLORADO SPRINGS & PUEBLO ARPT.
FOR CD CTC DENVER ARTCC AT 303-651-4257.

Instrument Procedures

There are no published instrument procedures at C08.

Some nearby airports with instrument procedures:

1V6 - Fremont County Airport (28 nm NE)
4V1 - Spanish Peaks Airfield (34 nm SE)
KALS - San Luis Valley Regional Airport/Bergman Field (42 nm SW)
KMVI - Monte Vista Municipal Airport (43 nm SW)
KPUB - Pueblo Memorial Airport (45 nm E)
 
Loc | Ops | Rwys | IFR | FBO | Links
Com | Nav | Svcs | Stats | Notes

AirBoss

 
Area around C08 (Silver West Airport)
 
Road maps at: MapQuest Bing Google
 
Aerial photo
WARNING: Photo may not be current or correct
Aerial photo of C08 (Silver West Airport)
Photo by David Newcomer
Photo taken 31-Mar-2012
from 13,500' looking northwest.

Do you have a better or more recent aerial photo of Silver West Airport that you would like to share? If so, please send us your photo.

 
Sectional chart

 
Airport distance calculator
Flying to Silver West Airport? Find the distance to fly.

From to C08

Sunrise and sunset
Times for 24-Oct-2021
 Local
(UTC-6)
 Zulu
(UTC)
Morning civil twilight06:5312:53
Sunrise07:2013:20
Sunset18:1100:11
Evening civil twilight18:3800:38

Current date and time
Zulu (UTC)  24-Oct-2021 07:36:09
Local (UTC-6)  24-Oct-2021 01:36:09
 
METAR
K1V6 
28nm NE 
240715Z AUTO 30017KT 10SM CLR 14/M01 A2978 RMK AO2
KVTP 
32nm S 
240715Z AUTO 29009G19KT 260V330 10SM SCT030 BKN044 OVC049 00/M05 A2998 RMK AO2
K04V 
38nm W 
240715Z AUTO 30005KT 10SM SCT110 03/00 A2998 RMK AO2
KPUB 
44nm E 
240653Z AUTO 29017G30KT 10SM CLR 16/M03 A2972 RMK AO2 PK WND 29030/0649 SLP012 T01611028 402501006
KANK 
45nm NW 
240715Z AUTO 25011G16KT 10SM CLR 08/M02 A3000 RMK AO1 T00781020
KFCS 
49nm NE 
240658Z AUTO 34003KT 10SM CLR 12/M05 A2976 RMK AO2 SLP037 T01201055 402190026 $
KRCV 
50nm W 
240715Z AUTO 26017G22KT 10SM SCT120 06/M03 A2995 RMK AO2 T00601026
TAF
KALS 
42nm SW 
240524Z 2406/2506 30006KT P6SM BKN100 OVC200 FM241700 29009KT P6SM SCT100 BKN200 FM250200 21007KT P6SM OVC150
KPUB 
44nm E 
240524Z 2406/2506 31011KT P6SM SCT130 BKN200 FM241000 28006KT P6SM SCT130 BKN200 FM242100 11010KT P6SM SCT120 BKN200 FM250300 05006KT P6SM SCT090 BKN200
KFCS 
49nm NE 
240503Z 2405/2511 34009KT 9999 BKN100 QNH2979INS TEMPO 2406/2409 -SHRA BECMG 2410/2411 VRB06KT 9999 FEW120 QNH2981INS BECMG 2416/2417 18012KT 9999 SKC QNH2990INS BECMG 2422/2423 VRB06KT 9999 BKN160 QNH2990INS BECMG 2505/2506 VRB06KT 9999 FEW140 SCT160 QNH3003INS TX19/2421Z TN03/2413Z
NOTAMs
Click for the latest NOTAMs
NOTAMs are issued by the DoD/FAA and will open in a separate window not controlled by AirNav.

 

 
 

FBO, Fuel Providers, and Aircraft Ground Support

  
 Business Name 
 
 Contact 
 
 Services / Description 
 
Fuel Prices
 
Comments
  
 SilverWest/Custer County Airport
122.90
719-783-2695
[web site]
[email]
Silver West Airport is located in the beautiful rocky mountains. At the base of both the Sangre de Cristo Mountain Range and the Wet Mountian Range.

More info about SilverWest/Custer County Airport
Phillips 66
100LL
SS $4.59 
 Updated 06-Jul-2021
 
   1 read write
SS=Self service
Update Fuel Prices
 

Would you like to see your business listed on this page?

 If your business provides an interesting product or service to pilots, flight crews, aircraft, or users of the Silver West Airport, you should consider listing it here.  To start the listing process, click on the button below
 
Add a business
 

Other Pages about Silver West Airport

silverwestairport.custercountygov.com
 
Update a link
 
Copyright © AirNav, LLC. All rights reserved. Privacy Policy  Contact